Tukwila, Washington
Current Conditions -  °F | °C
As of 10:53 PM on Tuesday 21 Oct 2014 (Local Time) from KSEA Reporting Station
Overcast Overcast  
Wind Chill: 59°   Ceiling: 8000
Heat Index: 59°   Visibility: 10mi
Dew Point: 45°   Wind: 10mph
Humidity: 60%   Direction: 150°SSE
Pressure: 29.77"   Gusts: NA
Location:  47.46°N, 122.25°W
Report Text: KSEA 220553Z 15009KT 10SM OVC080 15/07 A2977 RMK AO2 SLP087 T01500072 10156 20144 56022
Loading
Personal Weather Stations






























Interactive Weather Map
Tropical Storm Tracking
New forecast layout! Learn more

10-Day Weather Forecast

Advertisements
Track Severe Weather on mobile